Terrell, TX (75160)

4:40 PM CDT on August 29, 2016 (GMT -0500)
APRSWXNET | | Change Station

Elev 505 ft 32.80 °N, 96.30 °W | Updated 24 minutes ago

Partly Cloudy
Partly Cloudy
92 °F
Feels Like 101 °F
N
4
Wind Variable Wind from NE
Gusts 14.0 mph

Today
High -- | Low -- °F
--% Chance of Precip.
Yesterday
High -- | Low -- °F
Precip. -- in
Pressure 29.96 in
Visibility 10.0 miles
Clouds Few 4700 ft
Heat Index 101 °F
Dew Point 73 °F
Humidity 54%
Rainfall in
Snow Depth Not available.
6:58 AM 7:53 PM
Waning Crescent, 7% visible
METAR KTRL 292053Z AUTO 05008KT 10SM FEW047 33/21 A2998 RMK AO2 SLP144 60000 T03330211 58027 $
Pressure 29.96 in
Visibility 10.0 miles
Clouds Few 4700 ft
Heat Index 101 °F
Dew Point 73 °F
Humidity 54%
Rainfall in
Snow Depth Not available.
6:58 AM 7:53 PM
Waning Crescent, 7% visible
METAR KTRL 292053Z AUTO 05008KT 10SM FEW047 33/21 A2998 RMK AO2 SLP144 60000 T03330211 58027 $

10-Day Weather Forecast

Almanac

Astronomy

Aug. 29, 2016 Rise Set
Actual Time
Civil Twilight
Nautical Twilight
Astronomical Twilight
Moon
Length of Visible Light
Length of Day
Tomorrow will be .
, % of the Moon is Illuminated

Today's Extremes

State Highs State Lows

Community

WunderPhotos

Upload Photos

1,935,679 photos uploaded!

WunderBlog® & News

Nearby

Air Quality

  Air Quality AQ Index Pollutant
Not available.

Snow Depth

Station Depth Elevation

Earthquake Activity

City Distance Mag. Time & Date
Minimum magnitude displayed is 2.5.

Coastal Water Temperatures

Place Temperature

Stations

Nearby Weather Stations

Station Location Temp. Windchill Dew Point Humidity Wind Precip. Elev Updated Type
                   

Watches & Warnings

There are currently no watches in effect.